sensor_id;sensor_type;location;lat;lon;timestamp;temperature;humidity
42141;DHT22;27809;51.864;5.646;2023-05-19T00:01:27;7.80;99.90
42141;DHT22;27809;51.864;5.646;2023-05-19T00:03:55;7.90;99.90
42141;DHT22;27809;51.864;5.646;2023-05-19T00:06:28;7.70;99.90
42141;DHT22;27809;51.864;5.646;2023-05-19T00:09:01;7.70;99.90
42141;DHT22;27809;51.864;5.646;2023-05-19T00:11:28;7.70;99.90
42141;DHT22;27809;51.864;5.646;2023-05-19T00:13:55;7.70;99.90
42141;DHT22;27809;51.864;5.646;2023-05-19T00:16:22;7.70;99.90
42141;DHT22;27809;51.864;5.646;2023-05-19T00:18:48;7.70;99.90
42141;DHT22;27809;51.864;5.646;2023-05-19T00:21:13;7.70;99.90
42141;DHT22;27809;51.864;5.646;2023-05-19T00:23:39;7.70;99.90
42141;DHT22;27809;51.864;5.646;2023-05-19T00:26:05;7.70;99.90
42141;DHT22;27809;51.864;5.646;2023-05-19T00:28:30;7.60;99.90
42141;DHT22;27809;51.864;5.646;2023-05-19T00:30:56;7.60;99.90
42141;DHT22;27809;51.864;5.646;2023-05-19T00:33:21;7.50;99.90
42141;DHT22;27809;51.864;5.646;2023-05-19T00:35:47;7.50;99.90
42141;DHT22;27809;51.864;5.646;2023-05-19T00:38:12;7.50;99.90
42141;DHT22;27809;51.864;5.646;2023-05-19T00:40:38;7.50;99.90
42141;DHT22;27809;51.864;5.646;2023-05-19T00:43:04;7.40;99.90
42141;DHT22;27809;51.864;5.646;2023-05-19T00:45:33;7.50;99.90
42141;DHT22;27809;51.864;5.646;2023-05-19T00:47:59;7.40;99.90
42141;DHT22;27809;51.864;5.646;2023-05-19T00:50:24;7.40;99.90
42141;DHT22;27809;51.864;5.646;2023-05-19T00:52:51;7.40;99.90
42141;DHT22;27809;51.864;5.646;2023-05-19T00:55:17;7.30;99.90
42141;DHT22;27809;51.864;5.646;2023-05-19T00:57:44;7.30;99.90
42141;DHT22;27809;51.864;5.646;2023-05-19T01:00:10;7.40;99.90
42141;DHT22;27809;51.864;5.646;2023-05-19T01:02:36;7.20;99.90
42141;DHT22;27809;51.864;5.646;2023-05-19T01:05:05;7.20;99.90
42141;DHT22;27809;51.864;5.646;2023-05-19T01:07:31;7.20;99.90
42141;DHT22;27809;51.864;5.646;2023-05-19T01:09:57;7.10;99.90
42141;DHT22;27809;51.864;5.646;2023-05-19T01:12:22;7.20;99.90
42141;DHT22;27809;51.864;5.646;2023-05-19T01:14:48;7.20;99.90
42141;DHT22;27809;51.864;5.646;2023-05-19T01:17:29;6.90;99.90
42141;DHT22;27809;51.864;5.646;2023-05-19T01:20:07;6.80;99.90
42141;DHT22;27809;51.864;5.646;2023-05-19T01:22:54;6.80;99.90
42141;DHT22;27809;51.864;5.646;2023-05-19T01:25:44;7.00;99.90
42141;DHT22;27809;51.864;5.646;2023-05-19T01:31:20;6.80;99.90
42141;DHT22;27809;51.864;5.646;2023-05-19T01:33:48;6.90;99.90
42141;DHT22;27809;51.864;5.646;2023-05-19T01:36:16;6.90;99.90
42141;DHT22;27809;51.864;5.646;2023-05-19T01:38:44;6.90;99.90
42141;DHT22;27809;51.864;5.646;2023-05-19T01:41:11;6.90;99.90
42141;DHT22;27809;51.864;5.646;2023-05-19T01:43:37;6.80;99.90
42141;DHT22;27809;51.864;5.646;2023-05-19T01:46:04;6.70;99.90
42141;DHT22;27809;51.864;5.646;2023-05-19T01:48:31;6.80;99.90
42141;DHT22;27809;51.864;5.646;2023-05-19T01:50:57;6.90;99.90
42141;DHT22;27809;51.864;5.646;2023-05-19T01:53:23;6.80;99.90
42141;DHT22;27809;51.864;5.646;2023-05-19T01:55:52;6.80;99.90
42141;DHT22;27809;51.864;5.646;2023-05-19T01:58:38;6.70;99.90
42141;DHT22;27809;51.864;5.646;2023-05-19T02:07:10;6.70;99.90
42141;DHT22;27809;51.864;5.646;2023-05-19T02:09:48;6.60;99.90
42141;DHT22;27809;51.864;5.646;2023-05-19T02:12:30;6.60;99.90
42141;DHT22;27809;51.864;5.646;2023-05-19T02:15:10;6.50;99.90
42141;DHT22;27809;51.864;5.646;2023-05-19T02:17:40;6.50;99.90
42141;DHT22;27809;51.864;5.646;2023-05-19T02:20:07;6.40;99.90
42141;DHT22;27809;51.864;5.646;2023-05-19T02:22:33;6.30;99.90
42141;DHT22;27809;51.864;5.646;2023-05-19T02:24:59;6.30;99.90
42141;DHT22;27809;51.864;5.646;2023-05-19T02:27:25;6.30;99.90
42141;DHT22;27809;51.864;5.646;2023-05-19T02:29:50;6.30;99.90
42141;DHT22;27809;51.864;5.646;2023-05-19T02:32:16;6.30;99.90
42141;DHT22;27809;51.864;5.646;2023-05-19T02:34:42;6.40;99.90
42141;DHT22;27809;51.864;5.646;2023-05-19T02:37:18;6.40;99.90
42141;DHT22;27809;51.864;5.646;2023-05-19T02:39:48;6.50;99.90
42141;DHT22;27809;51.864;5.646;2023-05-19T02:42:13;6.40;99.90
42141;DHT22;27809;51.864;5.646;2023-05-19T02:44:41;6.40;99.90
42141;DHT22;27809;51.864;5.646;2023-05-19T02:47:07;6.40;99.90
42141;DHT22;27809;51.864;5.646;2023-05-19T02:49:32;6.40;99.90
42141;DHT22;27809;51.864;5.646;2023-05-19T02:52:02;6.40;99.90
42141;DHT22;27809;51.864;5.646;2023-05-19T02:54:29;6.30;99.90
42141;DHT22;27809;51.864;5.646;2023-05-19T02:56:55;6.30;99.90
42141;DHT22;27809;51.864;5.646;2023-05-19T02:59:20;6.20;99.90
42141;DHT22;27809;51.864;5.646;2023-05-19T03:01:47;6.20;99.90
42141;DHT22;27809;51.864;5.646;2023-05-19T03:04:13;6.30;99.90
42141;DHT22;27809;51.864;5.646;2023-05-19T03:06:39;6.20;99.90
42141;DHT22;27809;51.864;5.646;2023-05-19T03:09:04;6.20;99.90
42141;DHT22;27809;51.864;5.646;2023-05-19T03:11:30;6.00;99.90
42141;DHT22;27809;51.864;5.646;2023-05-19T03:13:56;5.90;99.90
42141;DHT22;27809;51.864;5.646;2023-05-19T03:16:21;6.00;99.90
42141;DHT22;27809;51.864;5.646;2023-05-19T03:18:47;6.00;99.90
42141;DHT22;27809;51.864;5.646;2023-05-19T03:21:12;6.00;99.90
42141;DHT22;27809;51.864;5.646;2023-05-19T03:23:38;6.10;99.90
42141;DHT22;27809;51.864;5.646;2023-05-19T03:26:03;6.10;99.90
42141;DHT22;27809;51.864;5.646;2023-05-19T03:28:29;6.20;99.90
42141;DHT22;27809;51.864;5.646;2023-05-19T03:30:55;6.10;99.90
42141;DHT22;27809;51.864;5.646;2023-05-19T03:33:20;6.10;99.90
42141;DHT22;27809;51.864;5.646;2023-05-19T03:35:46;6.10;99.90
42141;DHT22;27809;51.864;5.646;2023-05-19T03:38:12;6.10;99.90
42141;DHT22;27809;51.864;5.646;2023-05-19T03:40:37;6.10;99.90
42141;DHT22;27809;51.864;5.646;2023-05-19T03:43:03;6.10;99.90
42141;DHT22;27809;51.864;5.646;2023-05-19T03:45:28;6.10;99.90
42141;DHT22;27809;51.864;5.646;2023-05-19T03:47:54;6.10;99.90
42141;DHT22;27809;51.864;5.646;2023-05-19T03:50:19;6.00;99.90
42141;DHT22;27809;51.864;5.646;2023-05-19T03:52:45;6.00;99.90
42141;DHT22;27809;51.864;5.646;2023-05-19T03:55:12;6.10;99.90
42141;DHT22;27809;51.864;5.646;2023-05-19T03:57:39;6.20;99.90
42141;DHT22;27809;51.864;5.646;2023-05-19T04:00:06;6.10;99.90
42141;DHT22;27809;51.864;5.646;2023-05-19T04:02:32;6.20;99.90
42141;DHT22;27809;51.864;5.646;2023-05-19T04:04:57;6.20;99.90
42141;DHT22;27809;51.864;5.646;2023-05-19T04:07:23;6.40;99.90
42141;DHT22;27809;51.864;5.646;2023-05-19T04:09:49;6.40;99.90
42141;DHT22;27809;51.864;5.646;2023-05-19T04:12:15;6.60;99.90
42141;DHT22;27809;51.864;5.646;2023-05-19T04:14:40;6.60;99.90
42141;DHT22;27809;51.864;5.646;2023-05-19T04:17:06;6.70;99.90
42141;DHT22;27809;51.864;5.646;2023-05-19T04:19:32;6.90;99.90
42141;DHT22;27809;51.864;5.646;2023-05-19T04:21:57;7.00;99.90
42141;DHT22;27809;51.864;5.646;2023-05-19T04:24:23;7.00;99.90
42141;DHT22;27809;51.864;5.646;2023-05-19T04:26:48;7.10;99.90
42141;DHT22;27809;51.864;5.646;2023-05-19T04:29:15;7.20;99.90
42141;DHT22;27809;51.864;5.646;2023-05-19T04:31:44;7.20;99.90
42141;DHT22;27809;51.864;5.646;2023-05-19T04:34:10;7.20;99.90
42141;DHT22;27809;51.864;5.646;2023-05-19T04:36:36;7.30;99.90
42141;DHT22;27809;51.864;5.646;2023-05-19T04:39:02;7.30;99.90
42141;DHT22;27809;51.864;5.646;2023-05-19T04:41:31;7.40;99.90
42141;DHT22;27809;51.864;5.646;2023-05-19T04:43:58;7.40;99.90
42141;DHT22;27809;51.864;5.646;2023-05-19T04:46:23;7.50;99.90
42141;DHT22;27809;51.864;5.646;2023-05-19T04:48:50;7.60;99.90
42141;DHT22;27809;51.864;5.646;2023-05-19T04:51:17;7.70;99.90
42141;DHT22;27809;51.864;5.646;2023-05-19T04:53:44;7.70;99.90
42141;DHT22;27809;51.864;5.646;2023-05-19T04:56:09;7.90;99.90
42141;DHT22;27809;51.864;5.646;2023-05-19T04:58:39;8.00;99.90
42141;DHT22;27809;51.864;5.646;2023-05-19T05:01:05;8.00;99.90
42141;DHT22;27809;51.864;5.646;2023-05-19T05:03:31;8.10;99.90
42141;DHT22;27809;51.864;5.646;2023-05-19T05:05:58;8.20;99.90
42141;DHT22;27809;51.864;5.646;2023-05-19T05:08:24;8.30;99.90
42141;DHT22;27809;51.864;5.646;2023-05-19T05:10:50;8.40;99.90
42141;DHT22;27809;51.864;5.646;2023-05-19T05:13:21;8.50;99.90
42141;DHT22;27809;51.864;5.646;2023-05-19T05:15:47;8.60;99.90
42141;DHT22;27809;51.864;5.646;2023-05-19T05:18:14;8.70;99.90
42141;DHT22;27809;51.864;5.646;2023-05-19T05:20:43;8.80;99.90
42141;DHT22;27809;51.864;5.646;2023-05-19T05:23:10;8.90;99.90
42141;DHT22;27809;51.864;5.646;2023-05-19T05:25:40;9.00;99.90
42141;DHT22;27809;51.864;5.646;2023-05-19T05:28:05;9.20;99.90
42141;DHT22;27809;51.864;5.646;2023-05-19T05:30:33;9.20;99.90
42141;DHT22;27809;51.864;5.646;2023-05-19T05:32:59;9.30;99.90
42141;DHT22;27809;51.864;5.646;2023-05-19T05:35:24;9.40;99.90
42141;DHT22;27809;51.864;5.646;2023-05-19T05:37:50;9.50;99.90
42141;DHT22;27809;51.864;5.646;2023-05-19T05:40:16;9.60;99.90
42141;DHT22;27809;51.864;5.646;2023-05-19T05:42:42;9.80;99.90
42141;DHT22;27809;51.864;5.646;2023-05-19T05:45:08;9.80;99.90
42141;DHT22;27809;51.864;5.646;2023-05-19T05:47:34;9.90;99.90
42141;DHT22;27809;51.864;5.646;2023-05-19T05:50:03;10.10;99.90
42141;DHT22;27809;51.864;5.646;2023-05-19T05:52:29;10.10;99.90
42141;DHT22;27809;51.864;5.646;2023-05-19T05:54:55;10.20;99.90
42141;DHT22;27809;51.864;5.646;2023-05-19T05:57:21;10.20;99.90
42141;DHT22;27809;51.864;5.646;2023-05-19T05:59:46;10.30;99.90
42141;DHT22;27809;51.864;5.646;2023-05-19T06:02:12;10.60;99.90
42141;DHT22;27809;51.864;5.646;2023-05-19T06:04:38;10.70;99.90
42141;DHT22;27809;51.864;5.646;2023-05-19T06:07:04;10.80;99.90
42141;DHT22;27809;51.864;5.646;2023-05-19T06:09:30;11.00;99.90
42141;DHT22;27809;51.864;5.646;2023-05-19T06:11:57;10.90;95.40
42141;DHT22;27809;51.864;5.646;2023-05-19T06:14:24;11.10;93.30
42141;DHT22;27809;51.864;5.646;2023-05-19T06:16:49;11.20;92.70
42141;DHT22;27809;51.864;5.646;2023-05-19T06:19:15;11.40;91.50
42141;DHT22;27809;51.864;5.646;2023-05-19T06:21:40;11.60;90.80
42141;DHT22;27809;51.864;5.646;2023-05-19T06:24:07;11.70;86.20
42141;DHT22;27809;51.864;5.646;2023-05-19T06:26:32;11.80;78.40
42141;DHT22;27809;51.864;5.646;2023-05-19T06:28:58;11.90;77.70
42141;DHT22;27809;51.864;5.646;2023-05-19T06:31:23;11.90;71.50
42141;DHT22;27809;51.864;5.646;2023-05-19T06:33:51;12.00;74.30
42141;DHT22;27809;51.864;5.646;2023-05-19T06:36:16;12.00;67.30
42141;DHT22;27809;51.864;5.646;2023-05-19T06:38:42;11.90;62.70
42141;DHT22;27809;51.864;5.646;2023-05-19T06:41:07;12.00;58.20
42141;DHT22;27809;51.864;5.646;2023-05-19T06:43:33;12.30;61.30
42141;DHT22;27809;51.864;5.646;2023-05-19T06:45:58;12.30;44.50
42141;DHT22;27809;51.864;5.646;2023-05-19T06:48:24;12.20;35.10
42141;DHT22;27809;51.864;5.646;2023-05-19T06:50:49;12.40;42.10
42141;DHT22;27809;51.864;5.646;2023-05-19T06:53:17;12.40;29.00
42141;DHT22;27809;51.864;5.646;2023-05-19T06:55:43;12.60;30.30
42141;DHT22;27809;51.864;5.646;2023-05-19T06:58:08;12.70;27.50
42141;DHT22;27809;51.864;5.646;2023-05-19T07:00:34;12.70;20.80
42141;DHT22;27809;51.864;5.646;2023-05-19T07:02:59;12.90;25.80
42141;DHT22;27809;51.864;5.646;2023-05-19T07:05:25;13.20;22.10
42141;DHT22;27809;51.864;5.646;2023-05-19T07:07:50;13.00;17.50
42141;DHT22;27809;51.864;5.646;2023-05-19T07:10:16;13.20;21.80
42141;DHT22;27809;51.864;5.646;2023-05-19T07:12:42;13.40;24.30
42141;DHT22;27809;51.864;5.646;2023-05-19T07:15:07;13.70;20.00
42141;DHT22;27809;51.864;5.646;2023-05-19T07:17:33;13.80;13.40
42141;DHT22;27809;51.864;5.646;2023-05-19T07:19:58;13.80;4.80
42141;DHT22;27809;51.864;5.646;2023-05-19T07:22:25;13.70;4.40
42141;DHT22;27809;51.864;5.646;2023-05-19T07:24:51;14.00;10.20
42141;DHT22;27809;51.864;5.646;2023-05-19T07:27:17;14.00;3.80
42141;DHT22;27809;51.864;5.646;2023-05-19T07:29:42;18.60;1.00
42141;DHT22;27809;51.864;5.646;2023-05-19T07:32:08;19.80;1.00
42141;DHT22;27809;51.864;5.646;2023-05-19T07:34:33;16.40;1.00
42141;DHT22;27809;51.864;5.646;2023-05-19T07:36:59;17.00;1.00
42141;DHT22;27809;51.864;5.646;2023-05-19T07:39:24;20.20;1.00
42141;DHT22;27809;51.864;5.646;2023-05-19T07:41:54;20.90;1.00
42141;DHT22;27809;51.864;5.646;2023-05-19T07:44:20;21.10;1.00
42141;DHT22;27809;51.864;5.646;2023-05-19T07:46:46;21.30;1.00
42141;DHT22;27809;51.864;5.646;2023-05-19T07:49:12;21.40;1.00
42141;DHT22;27809;51.864;5.646;2023-05-19T07:51:37;21.50;1.00
42141;DHT22;27809;51.864;5.646;2023-05-19T07:54:03;21.40;1.00
42141;DHT22;27809;51.864;5.646;2023-05-19T07:56:28;21.70;1.00
42141;DHT22;27809;51.864;5.646;2023-05-19T07:58:54;21.70;1.00
42141;DHT22;27809;51.864;5.646;2023-05-19T08:01:20;21.60;1.00
42141;DHT22;27809;51.864;5.646;2023-05-19T08:03:45;21.30;1.00
42141;DHT22;27809;51.864;5.646;2023-05-19T08:06:11;21.60;1.00
42141;DHT22;27809;51.864;5.646;2023-05-19T08:08:36;21.60;1.00
42141;DHT22;27809;51.864;5.646;2023-05-19T08:11:03;21.90;1.00
42141;DHT22;27809;51.864;5.646;2023-05-19T08:13:29;21.90;1.00
42141;DHT22;27809;51.864;5.646;2023-05-19T08:15:54;21.70;1.00
42141;DHT22;27809;51.864;5.646;2023-05-19T08:18:24;21.60;1.00
42141;DHT22;27809;51.864;5.646;2023-05-19T08:20:50;22.10;1.00
42141;DHT22;27809;51.864;5.646;2023-05-19T08:23:15;22.40;1.00
42141;DHT22;27809;51.864;5.646;2023-05-19T08:25:42;22.10;1.00
42141;DHT22;27809;51.864;5.646;2023-05-19T08:28:07;22.30;1.00
42141;DHT22;27809;51.864;5.646;2023-05-19T08:30:33;22.80;1.00
42141;DHT22;27809;51.864;5.646;2023-05-19T08:32:58;22.60;1.00
42141;DHT22;27809;51.864;5.646;2023-05-19T08:35:24;22.70;1.00
42141;DHT22;27809;51.864;5.646;2023-05-19T08:37:50;23.10;1.00
42141;DHT22;27809;51.864;5.646;2023-05-19T08:40:16;23.10;1.00
42141;DHT22;27809;51.864;5.646;2023-05-19T08:42:46;23.20;1.00
42141;DHT22;27809;51.864;5.646;2023-05-19T08:45:12;23.30;1.00
42141;DHT22;27809;51.864;5.646;2023-05-19T08:47:38;23.40;1.00
42141;DHT22;27809;51.864;5.646;2023-05-19T08:50:06;21.40;1.00
42141;DHT22;27809;51.864;5.646;2023-05-19T08:55:43;19.10;1.00
42141;DHT22;27809;51.864;5.646;2023-05-19T08:58:10;18.40;1.00
42141;DHT22;27809;51.864;5.646;2023-05-19T09:00:37;18.60;1.00
42141;DHT22;27809;51.864;5.646;2023-05-19T09:03:03;18.50;1.00
42141;DHT22;27809;51.864;5.646;2023-05-19T09:05:29;18.70;1.00
42141;DHT22;27809;51.864;5.646;2023-05-19T09:07:56;18.20;1.00
42141;DHT22;27809;51.864;5.646;2023-05-19T09:10:22;18.90;1.00
42141;DHT22;27809;51.864;5.646;2023-05-19T09:12:47;19.10;1.00
42141;DHT22;27809;51.864;5.646;2023-05-19T09:15:17;19.10;1.00
42141;DHT22;27809;51.864;5.646;2023-05-19T09:17:46;19.70;1.00
42141;DHT22;27809;51.864;5.646;2023-05-19T09:20:12;19.50;1.00
42141;DHT22;27809;51.864;5.646;2023-05-19T09:22:45;20.20;1.00
42141;DHT22;27809;51.864;5.646;2023-05-19T09:25:24;20.40;1.00
42141;DHT22;27809;51.864;5.646;2023-05-19T09:27:49;20.20;1.00
42141;DHT22;27809;51.864;5.646;2023-05-19T09:30:16;20.30;1.00
42141;DHT22;27809;51.864;5.646;2023-05-19T09:32:42;20.30;1.00
42141;DHT22;27809;51.864;5.646;2023-05-19T09:35:08;20.10;1.00
42141;DHT22;27809;51.864;5.646;2023-05-19T09:37:34;20.20;1.00
42141;DHT22;27809;51.864;5.646;2023-05-19T09:40:00;20.40;1.00
42141;DHT22;27809;51.864;5.646;2023-05-19T09:42:26;20.40;1.00
42141;DHT22;27809;51.864;5.646;2023-05-19T09:45:02;20.00;1.00
42141;DHT22;27809;51.864;5.646;2023-05-19T09:47:35;20.40;1.00
42141;DHT22;27809;51.864;5.646;2023-05-19T09:50:08;20.60;1.00
42141;DHT22;27809;51.864;5.646;2023-05-19T09:52:37;20.60;1.00
42141;DHT22;27809;51.864;5.646;2023-05-19T09:55:09;20.80;1.00
42141;DHT22;27809;51.864;5.646;2023-05-19T09:57:36;20.80;1.00
42141;DHT22;27809;51.864;5.646;2023-05-19T10:00:06;21.20;1.00
42141;DHT22;27809;51.864;5.646;2023-05-19T10:02:45;21.60;1.00
42141;DHT22;27809;51.864;5.646;2023-05-19T10:05:18;21.80;1.00
42141;DHT22;27809;51.864;5.646;2023-05-19T10:07:49;21.60;1.00
42141;DHT22;27809;51.864;5.646;2023-05-19T10:10:16;21.90;1.00
42141;DHT22;27809;51.864;5.646;2023-05-19T10:12:44;21.50;1.00
42141;DHT22;27809;51.864;5.646;2023-05-19T10:15:12;21.90;1.00
42141;DHT22;27809;51.864;5.646;2023-05-19T10:17:39;21.10;1.00
42141;DHT22;27809;51.864;5.646;2023-05-19T10:20:12;21.10;1.00
42141;DHT22;27809;51.864;5.646;2023-05-19T10:22:39;21.40;1.00
42141;DHT22;27809;51.864;5.646;2023-05-19T10:25:05;21.50;1.00
42141;DHT22;27809;51.864;5.646;2023-05-19T10:27:37;21.50;1.00
42141;DHT22;27809;51.864;5.646;2023-05-19T10:30:07;21.00;1.00
42141;DHT22;27809;51.864;5.646;2023-05-19T10:32:37;21.40;1.00
42141;DHT22;27809;51.864;5.646;2023-05-19T10:37:57;20.90;1.00
42141;DHT22;27809;51.864;5.646;2023-05-19T10:40:39;21.90;1.00
42141;DHT22;27809;51.864;5.646;2023-05-19T10:46:01;21.80;1.00
42141;DHT22;27809;51.864;5.646;2023-05-19T10:48:32;22.20;1.00
42141;DHT22;27809;51.864;5.646;2023-05-19T10:51:00;21.90;1.00
42141;DHT22;27809;51.864;5.646;2023-05-19T10:53:31;22.00;1.00
42141;DHT22;27809;51.864;5.646;2023-05-19T10:55:56;21.00;1.00
42141;DHT22;27809;51.864;5.646;2023-05-19T11:01:12;20.40;1.00
42141;DHT22;27809;51.864;5.646;2023-05-19T11:03:51;20.00;1.00
42141;DHT22;27809;51.864;5.646;2023-05-19T11:06:40;20.50;1.00
42141;DHT22;27809;51.864;5.646;2023-05-19T11:09:14;20.80;1.00
42141;DHT22;27809;51.864;5.646;2023-05-19T11:11:53;20.90;1.00
42141;DHT22;27809;51.864;5.646;2023-05-19T11:14:20;21.30;1.00
42141;DHT22;27809;51.864;5.646;2023-05-19T11:16:51;20.90;1.00
42141;DHT22;27809;51.864;5.646;2023-05-19T11:19:28;20.80;1.00
42141;DHT22;27809;51.864;5.646;2023-05-19T11:21:55;20.80;1.00
42141;DHT22;27809;51.864;5.646;2023-05-19T11:24:42;20.90;1.00
42141;DHT22;27809;51.864;5.646;2023-05-19T11:29:49;20.80;1.00
42141;DHT22;27809;51.864;5.646;2023-05-19T11:32:18;20.40;1.00
42141;DHT22;27809;51.864;5.646;2023-05-19T11:34:44;20.40;1.00
42141;DHT22;27809;51.864;5.646;2023-05-19T11:37:13;20.90;1.00
42141;DHT22;27809;51.864;5.646;2023-05-19T11:39:39;20.90;1.00
42141;DHT22;27809;51.864;5.646;2023-05-19T11:42:05;21.10;1.00
42141;DHT22;27809;51.864;5.646;2023-05-19T11:44:32;20.70;1.00
42141;DHT22;27809;51.864;5.646;2023-05-19T11:46:58;20.80;1.00
42141;DHT22;27809;51.864;5.646;2023-05-19T11:49:24;20.80;1.00
42141;DHT22;27809;51.864;5.646;2023-05-19T11:51:50;23.40;1.00
42141;DHT22;27809;51.864;5.646;2023-05-19T11:54:15;23.30;1.00
42141;DHT22;27809;51.864;5.646;2023-05-19T11:56:42;23.50;1.00
42141;DHT22;27809;51.864;5.646;2023-05-19T11:59:08;24.00;1.00
42141;DHT22;27809;51.864;5.646;2023-05-19T12:01:34;24.10;1.00
42141;DHT22;27809;51.864;5.646;2023-05-19T12:04:00;23.50;1.00
42141;DHT22;27809;51.864;5.646;2023-05-19T12:06:27;23.10;1.00
42141;DHT22;27809;51.864;5.646;2023-05-19T12:08:54;23.60;1.00
42141;DHT22;27809;51.864;5.646;2023-05-19T12:11:20;24.00;1.00
42141;DHT22;27809;51.864;5.646;2023-05-19T12:13:47;23.20;1.00
42141;DHT22;27809;51.864;5.646;2023-05-19T12:16:13;23.60;1.00
42141;DHT22;27809;51.864;5.646;2023-05-19T12:18:38;24.10;1.00
42141;DHT22;27809;51.864;5.646;2023-05-19T12:21:07;23.60;1.00
42141;DHT22;27809;51.864;5.646;2023-05-19T12:23:33;24.10;1.00
42141;DHT22;27809;51.864;5.646;2023-05-19T12:25:59;24.30;1.00
42141;DHT22;27809;51.864;5.646;2023-05-19T12:28:28;24.20;1.00
42141;DHT22;27809;51.864;5.646;2023-05-19T12:30:55;23.50;1.00
42141;DHT22;27809;51.864;5.646;2023-05-19T12:33:23;24.20;1.00
42141;DHT22;27809;51.864;5.646;2023-05-19T12:35:49;23.80;1.00
42141;DHT22;27809;51.864;5.646;2023-05-19T12:38:15;24.20;1.00
42141;DHT22;27809;51.864;5.646;2023-05-19T12:40:42;24.50;1.00
42141;DHT22;27809;51.864;5.646;2023-05-19T12:43:18;23.90;1.00
42141;DHT22;27809;51.864;5.646;2023-05-19T12:45:43;23.80;1.00
42141;DHT22;27809;51.864;5.646;2023-05-19T12:48:13;23.90;1.00
42141;DHT22;27809;51.864;5.646;2023-05-19T12:50:41;24.50;1.00
42141;DHT22;27809;51.864;5.646;2023-05-19T12:53:10;24.80;1.00
42141;DHT22;27809;51.864;5.646;2023-05-19T12:55:43;24.80;1.00
42141;DHT22;27809;51.864;5.646;2023-05-19T12:58:12;24.70;1.00
42141;DHT22;27809;51.864;5.646;2023-05-19T13:00:41;24.50;1.00
42141;DHT22;27809;51.864;5.646;2023-05-19T13:03:19;24.60;1.00
42141;DHT22;27809;51.864;5.646;2023-05-19T13:05:47;23.70;1.00
42141;DHT22;27809;51.864;5.646;2023-05-19T13:08:15;23.10;1.00
42141;DHT22;27809;51.864;5.646;2023-05-19T13:10:42;23.50;1.00
42141;DHT22;27809;51.864;5.646;2023-05-19T13:13:09;23.50;1.00
42141;DHT22;27809;51.864;5.646;2023-05-19T13:15:37;24.40;1.00
42141;DHT22;27809;51.864;5.646;2023-05-19T13:18:05;24.90;1.00
42141;DHT22;27809;51.864;5.646;2023-05-19T13:20:31;24.90;1.00
42141;DHT22;27809;51.864;5.646;2023-05-19T13:23:00;24.60;1.00
42141;DHT22;27809;51.864;5.646;2023-05-19T13:25:26;24.40;1.00
42141;DHT22;27809;51.864;5.646;2023-05-19T13:27:52;23.90;1.00
42141;DHT22;27809;51.864;5.646;2023-05-19T13:30:19;22.70;1.00
42141;DHT22;27809;51.864;5.646;2023-05-19T13:32:46;22.00;1.00
42141;DHT22;27809;51.864;5.646;2023-05-19T13:35:13;21.90;1.00
42141;DHT22;27809;51.864;5.646;2023-05-19T13:37:40;21.70;1.00
42141;DHT22;27809;51.864;5.646;2023-05-19T13:40:06;21.20;1.00
42141;DHT22;27809;51.864;5.646;2023-05-19T13:42:32;23.40;1.00
42141;DHT22;27809;51.864;5.646;2023-05-19T13:44:58;24.30;1.00
42141;DHT22;27809;51.864;5.646;2023-05-19T13:47:23;25.00;1.00
42141;DHT22;27809;51.864;5.646;2023-05-19T13:49:49;24.80;1.00
42141;DHT22;27809;51.864;5.646;2023-05-19T13:52:15;25.20;1.00
42141;DHT22;27809;51.864;5.646;2023-05-19T13:54:41;25.00;1.00
42141;DHT22;27809;51.864;5.646;2023-05-19T13:57:06;25.00;1.00
42141;DHT22;27809;51.864;5.646;2023-05-19T13:59:32;24.20;1.00
42141;DHT22;27809;51.864;5.646;2023-05-19T14:01:59;23.60;1.00
42141;DHT22;27809;51.864;5.646;2023-05-19T14:04:24;24.80;1.00
42141;DHT22;27809;51.864;5.646;2023-05-19T14:06:50;24.20;1.00
42141;DHT22;27809;51.864;5.646;2023-05-19T14:09:16;24.70;1.00
42141;DHT22;27809;51.864;5.646;2023-05-19T14:11:41;24.00;1.00
42141;DHT22;27809;51.864;5.646;2023-05-19T14:14:07;23.90;1.00
42141;DHT22;27809;51.864;5.646;2023-05-19T14:16:33;24.70;1.00
42141;DHT22;27809;51.864;5.646;2023-05-19T14:18:58;23.70;1.00
42141;DHT22;27809;51.864;5.646;2023-05-19T14:21:24;23.80;1.00
42141;DHT22;27809;51.864;5.646;2023-05-19T14:23:50;24.80;1.00
42141;DHT22;27809;51.864;5.646;2023-05-19T14:26:15;24.60;1.00
42141;DHT22;27809;51.864;5.646;2023-05-19T14:28:41;25.30;1.00
42141;DHT22;27809;51.864;5.646;2023-05-19T14:31:11;25.30;1.00
42141;DHT22;27809;51.864;5.646;2023-05-19T14:33:36;24.10;1.00
42141;DHT22;27809;51.864;5.646;2023-05-19T14:36:02;24.40;1.00
42141;DHT22;27809;51.864;5.646;2023-05-19T14:38:29;25.10;1.00
42141;DHT22;27809;51.864;5.646;2023-05-19T14:40:55;25.30;1.00
42141;DHT22;27809;51.864;5.646;2023-05-19T14:43:21;25.20;1.00
42141;DHT22;27809;51.864;5.646;2023-05-19T14:45:46;25.00;1.00
42141;DHT22;27809;51.864;5.646;2023-05-19T14:48:12;25.20;1.00
42141;DHT22;27809;51.864;5.646;2023-05-19T14:50:37;24.50;1.00
42141;DHT22;27809;51.864;5.646;2023-05-19T14:53:03;24.40;1.00
42141;DHT22;27809;51.864;5.646;2023-05-19T14:55:29;24.50;1.00
42141;DHT22;27809;51.864;5.646;2023-05-19T14:57:55;24.80;1.00
42141;DHT22;27809;51.864;5.646;2023-05-19T15:00:20;24.40;1.00
42141;DHT22;27809;51.864;5.646;2023-05-19T15:02:46;24.70;1.00
42141;DHT22;27809;51.864;5.646;2023-05-19T15:05:12;25.00;1.00
42141;DHT22;27809;51.864;5.646;2023-05-19T15:07:38;24.20;1.00
42141;DHT22;27809;51.864;5.646;2023-05-19T15:10:03;23.20;1.00
42141;DHT22;27809;51.864;5.646;2023-05-19T15:12:29;23.90;1.00
42141;DHT22;27809;51.864;5.646;2023-05-19T15:14:55;24.00;1.00
42141;DHT22;27809;51.864;5.646;2023-05-19T15:17:20;24.80;1.00
42141;DHT22;27809;51.864;5.646;2023-05-19T15:19:46;25.10;1.00
42141;DHT22;27809;51.864;5.646;2023-05-19T15:22:11;25.00;1.00
42141;DHT22;27809;51.864;5.646;2023-05-19T15:24:37;25.20;1.00
42141;DHT22;27809;51.864;5.646;2023-05-19T15:27:03;24.30;1.00
42141;DHT22;27809;51.864;5.646;2023-05-19T15:29:28;24.20;1.00
42141;DHT22;27809;51.864;5.646;2023-05-19T15:31:54;24.30;1.00
42141;DHT22;27809;51.864;5.646;2023-05-19T15:34:20;23.90;1.00
42141;DHT22;27809;51.864;5.646;2023-05-19T15:36:46;23.20;1.00
42141;DHT22;27809;51.864;5.646;2023-05-19T15:39:12;24.10;1.00
42141;DHT22;27809;51.864;5.646;2023-05-19T15:41:37;25.20;1.00
42141;DHT22;27809;51.864;5.646;2023-05-19T15:44:03;25.40;1.00
42141;DHT22;27809;51.864;5.646;2023-05-19T15:46:29;25.70;1.00
42141;DHT22;27809;51.864;5.646;2023-05-19T15:48:54;26.00;1.00
42141;DHT22;27809;51.864;5.646;2023-05-19T15:51:20;26.20;1.00
42141;DHT22;27809;51.864;5.646;2023-05-19T15:53:46;26.50;1.00
42141;DHT22;27809;51.864;5.646;2023-05-19T15:56:11;25.80;1.00
42141;DHT22;27809;51.864;5.646;2023-05-19T15:58:40;25.90;1.00
42141;DHT22;27809;51.864;5.646;2023-05-19T16:01:06;26.40;1.00
42141;DHT22;27809;51.864;5.646;2023-05-19T16:03:32;26.80;1.00
42141;DHT22;27809;51.864;5.646;2023-05-19T16:05:58;25.80;1.00
42141;DHT22;27809;51.864;5.646;2023-05-19T16:08:25;25.80;1.00